createdAt,value
2022-08-14T00:04:51.647Z,5.28
2022-08-14T00:10:50.284Z,4.78
2022-08-14T00:15:58.823Z,5.43
2022-08-14T00:21:19.849Z,5.53
2022-08-14T00:26:49.012Z,6.35
2022-08-14T00:32:52.249Z,5.43
2022-08-14T00:37:56.089Z,6.13
2022-08-14T00:43:17.763Z,5.57
2022-08-14T00:48:38.785Z,5.70
2022-08-14T00:54:05.294Z,4.82
2022-08-14T00:59:37.739Z,5.47
2022-08-14T01:05:01.531Z,5.13
2022-08-14T01:10:23.467Z,5.20
2022-08-14T01:16:01.159Z,5.22
2022-08-14T01:21:38.775Z,5.50
2022-08-14T01:27:07.594Z,4.93
2022-08-14T01:32:30.024Z,4.60
2022-08-14T01:37:56.400Z,4.55
2022-08-14T01:43:18.924Z,4.68
2022-08-14T01:48:44.385Z,4.40
2022-08-14T01:54:14.219Z,4.15
2022-08-14T01:59:37.817Z,4.55
2022-08-14T02:05:00.893Z,4.53
2022-08-14T02:10:26.299Z,5.40
2022-08-14T02:15:50.125Z,4.68
2022-08-14T02:21:12.544Z,5.03
2022-08-14T02:28:18.712Z,4.57
2022-08-14T02:32:30.142Z,4.45
2022-08-14T02:37:54.656Z,5.75
2022-08-14T02:43:15.332Z,4.85
2022-08-14T02:49:01.876Z,5.15
2022-08-14T02:54:23.451Z,5.82
2022-08-14T02:59:43.978Z,5.40
2022-08-14T03:05:05.841Z,5.55
2022-08-14T03:10:33.199Z,6.90
2022-08-14T03:15:57.782Z,6.72
2022-08-14T03:21:21.462Z,4.93
2022-08-14T03:26:44.900Z,6.78
2022-08-14T03:32:06.479Z,6.60
2022-08-14T03:37:51.774Z,6.10
2022-08-14T03:43:10.715Z,6.63
2022-08-14T03:48:31.656Z,7.15
2022-08-14T03:54:04.044Z,7.15
2022-08-14T03:59:24.979Z,7.30
2022-08-14T04:04:49.429Z,7.68
2022-08-14T04:10:11.018Z,6.60
2022-08-14T04:15:56.335Z,6.88
2022-08-14T04:21:17.232Z,6.35
2022-08-14T04:26:42.409Z,8.15
2022-08-14T04:33:00.980Z,7.47
2022-08-14T04:38:10.601Z,7.93
2022-08-14T04:43:47.910Z,7.72
2022-08-14T04:49:15.279Z,7.35
2022-08-14T04:54:35.903Z,7.10
2022-08-14T04:59:56.921Z,7.80
2022-08-14T05:05:17.589Z,8.05
2022-08-14T05:10:44.227Z,7.63
2022-08-14T05:16:06.809Z,8.05
2022-08-14T05:22:00.405Z,7.57
2022-08-14T05:27:11.322Z,7.82
2022-08-14T05:32:32.006Z,7.07
2022-08-14T05:37:53.457Z,8.07
2022-08-14T05:43:16.199Z,7.55
2022-08-14T05:48:42.905Z,6.57
2022-08-14T05:54:13.553Z,7.82
2022-08-14T05:59:45.006Z,6.90
2022-08-14T06:05:05.601Z,7.35
2022-08-14T06:10:30.690Z,8.00
2022-08-14T06:15:52.039Z,7.68
2022-08-14T06:21:15.841Z,8.68
2022-08-14T06:26:38.230Z,8.48
2022-08-14T06:32:38.664Z,8.07
2022-08-14T06:37:58.595Z,8.60
2022-08-14T06:43:21.014Z,8.32
2022-08-14T06:48:42.993Z,7.32
2022-08-14T06:54:03.865Z,7.45
2022-08-14T06:59:24.447Z,8.90
2022-08-14T07:05:05.534Z,8.63
2022-08-14T07:10:26.804Z,9.45
2022-08-14T07:15:50.511Z,7.72
2022-08-14T07:21:16.133Z,8.20
2022-08-14T07:26:38.788Z,7.75
2022-08-14T07:32:01.654Z,6.95
2022-08-14T07:37:22.314Z,7.43
2022-08-14T07:42:43.062Z,7.07
2022-08-14T07:48:07.449Z,6.93
2022-08-14T07:53:39.280Z,7.40
2022-08-14T07:59:01.381Z,7.82
2022-08-14T08:04:27.350Z,6.05
2022-08-14T08:09:53.491Z,6.00
2022-08-14T08:15:15.038Z,6.78
2022-08-14T08:20:40.875Z,5.57
2022-08-14T08:26:12.791Z,4.30
2022-08-14T08:31:51.089Z,5.03
2022-08-14T08:37:14.457Z,5.93
2022-08-14T08:42:41.495Z,5.32
2022-08-14T08:48:17.942Z,6.25
2022-08-14T08:53:41.471Z,6.40
2022-08-14T08:59:03.526Z,5.78
2022-08-14T09:04:26.292Z,6.13
2022-08-14T09:09:54.059Z,6.20
2022-08-14T09:15:20.413Z,6.88
2022-08-14T09:20:49.446Z,7.97
2022-08-14T09:26:21.182Z,5.93
2022-08-14T09:31:53.342Z,6.30
2022-08-14T09:37:49.628Z,7.80
2022-08-14T09:44:04.649Z,6.25
2022-08-14T09:49:40.639Z,6.82
2022-08-14T09:55:02.678Z,6.22
2022-08-14T10:00:42.427Z,5.53
2022-08-14T10:06:19.476Z,6.65
2022-08-14T10:11:43.595Z,5.70
2022-08-14T10:17:08.700Z,6.50
2022-08-14T10:23:21.819Z,5.72
2022-08-14T10:29:03.678Z,5.60
2022-08-14T10:34:14.132Z,5.40
2022-08-14T10:39:36.546Z,4.93
2022-08-14T10:44:57.763Z,5.10
2022-08-14T10:50:32.929Z,5.28
2022-08-14T10:55:59.402Z,4.75
2022-08-14T11:01:31.301Z,4.75
2022-08-14T11:06:59.441Z,5.28
2022-08-14T11:12:33.770Z,5.22
2022-08-14T11:18:01.149Z,5.05
2022-08-14T11:23:28.458Z,3.97
2022-08-14T11:29:02.809Z,4.78
2022-08-14T11:34:30.193Z,5.35
2022-08-14T11:39:54.138Z,6.80
2022-08-14T11:45:16.936Z,4.90
2022-08-14T11:50:39.494Z,5.43
2022-08-14T11:56:03.810Z,4.30
2022-08-14T12:01:31.228Z,4.70
2022-08-14T12:06:55.977Z,4.55
2022-08-14T12:12:36.191Z,5.03
2022-08-14T12:17:59.344Z,4.10
2022-08-14T12:23:23.084Z,4.35
2022-08-14T12:29:00.160Z,4.55
2022-08-14T12:34:24.149Z,4.97
2022-08-14T12:39:45.426Z,5.18
2022-08-14T12:45:11.109Z,4.45
2022-08-14T12:50:42.086Z,4.80
2022-08-14T12:56:21.293Z,4.55
2022-08-14T13:02:01.761Z,3.90
2022-08-14T13:07:32.075Z,4.13
2022-08-14T13:13:15.490Z,3.95
2022-08-14T13:18:41.282Z,4.00
2022-08-14T13:24:12.874Z,4.35
2022-08-14T13:29:43.858Z,4.23
2022-08-14T13:35:12.085Z,4.40
2022-08-14T13:40:37.369Z,5.15
2022-08-14T13:46:01.466Z,4.43
2022-08-14T13:51:26.706Z,4.90
2022-08-14T13:56:51.469Z,4.85
2022-08-14T14:02:13.431Z,4.63
2022-08-14T14:07:53.601Z,5.53
2022-08-14T14:13:17.757Z,5.25
2022-08-14T14:18:42.455Z,4.70
2022-08-14T14:24:04.777Z,4.00
2022-08-14T14:29:26.534Z,4.30
2022-08-14T14:34:53.400Z,4.55
2022-08-14T14:40:54.372Z,5.07
2022-08-14T14:45:59.698Z,4.40
2022-08-14T14:51:22.083Z,4.43
2022-08-14T14:56:47.418Z,4.38
2022-08-14T15:02:30.936Z,4.53
2022-08-14T15:07:52.872Z,4.03
2022-08-14T15:13:13.583Z,5.15
2022-08-14T15:18:36.889Z,5.13
2022-08-14T15:24:01.224Z,4.63
2022-08-14T15:29:21.910Z,3.70
2022-08-14T15:34:51.274Z,4.72
2022-08-14T15:40:22.092Z,4.07
2022-08-14T15:45:43.214Z,4.65
2022-08-14T15:51:04.860Z,5.40
2022-08-14T15:56:32.922Z,5.07
2022-08-14T16:02:04.211Z,5.30
2022-08-14T16:07:27.288Z,4.75
2022-08-14T16:12:50.496Z,4.57
2022-08-14T16:18:18.594Z,5.22
2022-08-14T16:23:44.578Z,4.80
2022-08-14T16:29:07.713Z,5.43
2022-08-14T16:34:45.520Z,5.07
2022-08-14T16:40:12.776Z,4.80
2022-08-14T16:51:06.719Z,4.63
2022-08-14T16:56:36.178Z,4.35
2022-08-14T17:02:00.793Z,4.80
2022-08-14T17:12:48.541Z,4.47
2022-08-14T17:18:22.134Z,4.97
2022-08-14T17:23:44.656Z,5.18
2022-08-14T17:29:08.494Z,5.10
2022-08-14T17:34:45.599Z,5.93
2022-08-14T17:40:19.042Z,5.35
2022-08-14T17:45:41.873Z,5.38
2022-08-14T17:51:03.885Z,5.13
2022-08-14T17:56:30.901Z,6.43
2022-08-14T18:01:53.169Z,5.38
2022-08-14T18:08:31.494Z,14.05
2022-08-14T18:13:01.756Z,12.55
2022-08-14T18:18:22.796Z,15.48
2022-08-14T18:23:43.641Z,5.50
2022-08-14T18:29:14.659Z,5.03
2022-08-14T18:34:38.127Z,5.03
2022-08-14T18:40:18.060Z,5.00
2022-08-14T18:45:58.935Z,4.90
2022-08-14T18:51:45.175Z,4.80
2022-08-14T18:57:09.013Z,4.95
2022-08-14T19:02:42.903Z,4.60
2022-08-14T19:08:28.204Z,4.32
2022-08-14T19:13:51.761Z,4.50
2022-08-14T19:19:14.275Z,4.93
2022-08-14T19:24:34.866Z,4.85
2022-08-14T19:30:20.398Z,5.65
2022-08-14T19:35:55.089Z,4.65
2022-08-14T19:41:34.645Z,4.72
2022-08-14T19:47:00.387Z,5.00
2022-08-14T19:52:30.044Z,4.40
2022-08-14T19:57:58.200Z,3.88
2022-08-14T20:03:23.903Z,5.00
2022-08-14T20:10:58.563Z,5.55
2022-08-14T20:14:30.721Z,4.70
2022-08-14T20:19:51.638Z,4.30
2022-08-14T20:25:22.945Z,4.97
2022-08-14T20:30:44.035Z,5.05
2022-08-14T20:36:15.387Z,4.90
2022-08-14T20:41:48.945Z,5.05
2022-08-14T20:47:16.979Z,4.57
2022-08-14T20:52:40.483Z,4.63
2022-08-14T20:58:09.875Z,4.85
2022-08-14T21:03:58.591Z,4.47
2022-08-14T21:10:05.813Z,4.80
2022-08-14T21:15:11.261Z,5.22
2022-08-14T21:20:42.963Z,5.30
2022-08-14T21:26:07.516Z,5.18
2022-08-14T21:31:30.162Z,5.47
2022-08-14T21:36:52.997Z,5.13
2022-08-14T21:42:13.760Z,5.75
2022-08-14T21:47:37.960Z,5.60
2022-08-14T21:53:05.421Z,5.10
2022-08-14T21:58:54.146Z,5.30
2022-08-14T22:04:33.260Z,5.75
2022-08-14T22:09:54.816Z,5.55
2022-08-14T22:15:18.398Z,6.03
2022-08-14T22:20:41.145Z,5.78
2022-08-14T22:26:01.712Z,5.90
2022-08-14T22:31:24.319Z,5.78
2022-08-14T22:36:55.992Z,5.43
2022-08-14T22:42:20.902Z,5.40
2022-08-14T22:47:43.999Z,5.40
2022-08-14T22:53:06.794Z,6.07
2022-08-14T22:58:31.434Z,5.15
2022-08-14T23:03:55.501Z,5.43
2022-08-14T23:09:36.238Z,5.05
2022-08-14T23:15:00.312Z,6.03
2022-08-14T23:20:22.993Z,5.47
2022-08-14T23:25:58.881Z,6.13
2022-08-14T23:31:34.426Z,5.72
2022-08-14T23:36:57.547Z,5.63
2022-08-14T23:42:18.194Z,5.93
2022-08-14T23:47:51.605Z,5.80
2022-08-14T23:53:28.567Z,6.50
2022-08-14T23:59:07.048Z,6.90
